Time;durP1;ratioP1;P1;durP2;ratioP2;P2;SDS_P1;SDS_P2;PMS_P1;PMS_P2;Temp;Humidity;BMP_temperature;BMP_pressure;BME280_temperature;BME280_humidity;BME280_pressure;Samples;Min_cycle;Max_cycle;Signal;HPM_P1;HPM_P2
2021/10/31 00:01:22;;;;;;;19.23;9.60;;;10.90;99.90;;;;;;5034488;28;20451;-87
2021/10/31 00:03:48;;;;;;;17.08;8.80;;;10.90;99.90;;;;;;5052890;28;20040;-86
2021/10/31 00:06:13;;;;;;;15.40;9.40;;;10.80;99.90;;;;;;5035230;28;20033;-86
2021/10/31 00:08:39;;;;;;;18.73;10.30;;;10.80;99.90;;;;;;5034521;28;20060;-86
2021/10/31 00:11:06;;;;;;;21.88;10.80;;;10.80;99.90;;;;;;5028927;28;20493;-87
2021/10/31 00:13:32;;;;;;;13.90;9.32;;;10.80;99.90;;;;;;5037094;28;20029;-86
2021/10/31 00:16:01;;;;;;;16.88;9.48;;;10.70;99.90;;;;;;5034429;28;20405;-86
2021/10/31 00:18:27;;;;;;;23.08;10.55;;;10.70;99.90;;;;;;5034693;28;20108;-87
2021/10/31 00:20:52;;;;;;;17.25;10.85;;;10.60;99.90;;;;;;5033901;28;20175;-87
2021/10/31 00:23:18;;;;;;;17.50;11.18;;;10.60;99.90;;;;;;5024564;28;20040;-86
2021/10/31 00:25:44;;;;;;;16.10;10.30;;;10.60;99.90;;;;;;5048957;28;20024;-87
2021/10/31 00:28:09;;;;;;;19.55;9.85;;;10.60;99.90;;;;;;5050846;28;20094;-87
2021/10/31 00:30:35;;;;;;;17.33;9.77;;;10.60;99.90;;;;;;5036869;28;20501;-86
2021/10/31 00:33:00;;;;;;;18.95;9.75;;;10.50;99.90;;;;;;5038783;28;20029;-87
2021/10/31 00:35:29;;;;;;;18.98;9.88;;;10.50;99.90;;;;;;5037059;28;20065;-87
2021/10/31 00:37:55;;;;;;;24.60;10.95;;;10.50;99.90;;;;;;5053465;28;20029;-87
2021/10/31 00:40:24;;;;;;;15.38;9.50;;;10.50;99.90;;;;;;5052279;28;20033;-87
2021/10/31 00:42:56;;;;;;;17.65;9.07;;;10.50;99.90;;;;;;5050328;28;20073;-89
2021/10/31 00:45:21;;;;;;;22.63;9.55;;;10.50;99.90;;;;;;5034283;28;20102;-87
2021/10/31 00:47:47;;;;;;;19.13;10.20;;;10.50;99.90;;;;;;5023421;28;20025;-87
2021/10/31 00:50:12;;;;;;;18.50;9.68;;;10.50;99.90;;;;;;5048975;28;20033;-88
2021/10/31 00:52:38;;;;;;;21.05;10.07;;;10.40;99.90;;;;;;5045380;28;20028;-88
2021/10/31 00:55:05;;;;;;;20.88;10.15;;;10.40;99.90;;;;;;5031819;28;20439;-89
2021/10/31 00:57:31;;;;;;;19.73;10.88;;;10.40;99.90;;;;;;5037168;28;20079;-88
2021/10/31 00:59:58;;;;;;;20.23;10.77;;;10.40;99.90;;;;;;5032692;28;20029;-88
2021/10/31 01:02:24;;;;;;;16.13;10.38;;;10.40;99.90;;;;;;5043736;28;20080;-87
2021/10/31 01:04:54;;;;;;;21.40;11.13;;;10.40;99.90;;;;;;5028241;28;20049;-87
2021/10/31 01:07:52;;;;;;;17.25;10.80;;;10.40;99.90;;;;;;5023194;28;20057;-87
2021/10/31 01:10:43;;;;;;;23.45;9.52;;;10.30;99.90;;;;;;5036223;28;20037;-88
2021/10/31 01:13:21;;;;;;;19.83;10.00;;;10.30;99.90;;;;;;5029978;28;20504;-88
2021/10/31 01:16:20;;;;;;;18.63;9.40;;;10.20;99.90;;;;;;5020794;28;20532;-88
2021/10/31 01:19:00;;;;;;;19.48;10.00;;;10.20;99.90;;;;;;5041701;28;20030;-89
2021/10/31 01:21:56;;;;;;;17.63;10.23;;;10.20;99.90;;;;;;5040767;28;20091;-88
2021/10/31 01:24:41;;;;;;;23.92;10.68;;;10.10;99.90;;;;;;5019782;28;20038;-88
2021/10/31 01:27:31;;;;;;;24.40;11.40;;;10.10;99.90;;;;;;5027424;28;20416;-88
2021/10/31 01:30:08;;;;;;;15.70;9.48;;;10.10;99.90;;;;;;5039521;28;20032;-87
2021/10/31 01:32:37;;;;;;;25.05;10.50;;;10.10;99.90;;;;;;5024855;28;20030;-88
2021/10/31 01:35:43;;;;;;;22.02;10.13;;;10.10;99.90;;;;;;5025419;28;20404;-88
2021/10/31 01:38:31;;;;;;;23.50;10.32;;;10.00;99.90;;;;;;5006477;28;20136;-88
2021/10/31 01:41:03;;;;;;;17.30;9.82;;;10.00;99.90;;;;;;5041745;28;20509;-88
2021/10/31 01:44:00;;;;;;;24.38;10.90;;;9.90;99.90;;;;;;5019926;28;20084;-88
2021/10/31 01:46:37;;;;;;;23.90;9.68;;;9.90;99.90;;;;;;5023158;28;20029;-88
2021/10/31 01:49:02;;;;;;;24.33;10.65;;;9.90;99.90;;;;;;5027574;28;20478;-88
2021/10/31 01:51:41;;;;;;;21.30;9.90;;;9.90;99.90;;;;;;5019586;28;20026;-88
2021/10/31 01:54:25;;;;;;;15.75;9.45;;;9.90;99.90;;;;;;5024808;28;20029;-88
2021/10/31 01:56:53;;;;;;;17.17;9.00;;;9.90;99.90;;;;;;5021658;28;20041;-88
2021/10/31 01:59:25;;;;;;;22.00;9.70;;;9.90;99.90;;;;;;5038087;28;20052;-88
2021/10/31 02:01:51;;;;;;;;;;;9.90;99.90;;;;;;5024390;28;20060;-88
2021/10/31 02:04:19;;;;;;;16.83;8.65;;;9.90;99.90;;;;;;5027702;28;20008;-88
2021/10/31 02:06:48;;;;;;;19.83;10.02;;;9.90;99.90;;;;;;5027791;28;20018;-88
2021/10/31 02:09:17;;;;;;;17.83;9.15;;;9.90;99.90;;;;;;5022294;28;20036;-88
2021/10/31 02:11:45;;;;;;;19.42;9.82;;;9.80;99.90;;;;;;5029894;28;20021;-87
2021/10/31 02:14:13;;;;;;;16.90;9.32;;;9.80;99.90;;;;;;5031454;28;20030;-88
2021/10/31 02:16:40;;;;;;;18.30;9.40;;;9.80;99.90;;;;;;5031056;28;20045;-87
2021/10/31 02:19:13;;;;;;;20.02;10.27;;;9.80;99.90;;;;;;5022000;28;20072;-87
2021/10/31 02:21:40;;;;;;;18.42;9.73;;;9.80;99.90;;;;;;5033387;28;20025;-87
2021/10/31 02:24:08;;;;;;;21.80;9.60;;;9.80;99.90;;;;;;5030085;28;20151;-87
2021/10/31 02:26:37;;;;;;;22.20;9.48;;;9.70;99.90;;;;;;5037397;28;20124;-88
2021/10/31 02:29:08;;;;;;;20.67;9.50;;;9.70;99.90;;;;;;5032364;28;20018;-88
2021/10/31 02:31:35;;;;;;;17.65;8.73;;;9.80;99.90;;;;;;5033852;28;20381;-87
2021/10/31 02:34:01;;;;;;;16.27;9.63;;;9.70;99.90;;;;;;5032738;28;20414;-88
2021/10/31 02:36:27;;;;;;;21.00;11.20;;;9.70;99.90;;;;;;5039562;28;20455;-87
2021/10/31 02:38:52;;;;;;;21.08;11.50;;;9.60;99.90;;;;;;5046782;28;20029;-88
2021/10/31 02:41:18;;;;;;;18.95;10.18;;;9.70;99.90;;;;;;5029940;28;20026;-87
2021/10/31 02:43:44;;;;;;;19.10;10.82;;;9.60;99.90;;;;;;5033361;28;20029;-88
2021/10/31 02:46:09;;;;;;;18.70;10.20;;;9.70;99.90;;;;;;5035352;28;20182;-88
2021/10/31 02:48:38;;;;;;;20.75;10.57;;;9.60;99.90;;;;;;5029451;28;20021;-88
2021/10/31 02:51:36;;;;;;;19.05;11.27;;;9.70;99.90;;;;;;5033024;28;20057;-87
2021/10/31 02:54:44;;;;;;;26.23;11.40;;;9.70;99.90;;;;;;5050171;28;20107;-87
2021/10/31 02:57:32;;;;;;;17.80;10.18;;;9.60;99.90;;;;;;5033059;28;20037;-87
2021/10/31 03:00:03;;;;;;;22.80;11.35;;;9.60;99.90;;;;;;5055061;28;20457;-87
2021/10/31 03:02:37;;;;;;;25.35;12.02;;;9.60;99.90;;;;;;5043012;28;20088;-88
2021/10/31 03:05:03;;;;;;;19.33;11.45;;;9.60;99.90;;;;;;5031802;28;20014;-87
2021/10/31 03:07:29;;;;;;;21.77;12.65;;;9.60;99.90;;;;;;5033805;28;20024;-87
2021/10/31 03:09:55;;;;;;;19.80;11.85;;;9.60;99.90;;;;;;5032606;28;20026;-87
2021/10/31 03:12:20;;;;;;;20.45;12.55;;;9.60;99.90;;;;;;5030056;28;20034;-87
2021/10/31 03:14:47;;;;;;;20.90;11.75;;;9.60;99.90;;;;;;5027211;28;20402;-87
2021/10/31 03:17:13;;;;;;;25.52;12.48;;;9.60;99.90;;;;;;5029652;28;20021;-86
2021/10/31 03:19:39;;;;;;;22.98;12.55;;;9.60;99.90;;;;;;5030961;28;20497;-87
2021/10/31 03:22:05;;;;;;;22.40;12.65;;;9.70;99.90;;;;;;5040400;28;20501;-87
2021/10/31 03:24:32;;;;;;;20.92;12.35;;;9.70;99.90;;;;;;5018795;28;20053;-87
2021/10/31 03:26:58;;;;;;;19.83;13.20;;;9.70;99.90;;;;;;5032136;28;20053;-86
2021/10/31 03:29:25;;;;;;;24.65;12.98;;;9.70;99.90;;;;;;5029830;28;20148;-86
2021/10/31 03:31:52;;;;;;;21.80;13.10;;;9.70;99.90;;;;;;5040893;28;20029;-87
2021/10/31 03:34:17;;;;;;;28.35;13.07;;;9.80;99.90;;;;;;5032415;28;20068;-87
2021/10/31 03:36:43;;;;;;;20.90;12.02;;;9.80;99.90;;;;;;5045669;28;20461;-87
2021/10/31 03:39:18;;;;;;;20.20;12.15;;;9.70;99.90;;;;;;5034047;28;20033;-87
2021/10/31 03:41:51;;;;;;;24.90;13.65;;;9.80;99.90;;;;;;5032041;28;20049;-87
2021/10/31 03:44:18;;;;;;;23.95;12.93;;;9.70;99.90;;;;;;5030654;28;20022;-87
2021/10/31 03:46:45;;;;;;;21.60;13.40;;;9.80;99.90;;;;;;5038055;28;20026;-89
2021/10/31 03:49:16;;;;;;;26.90;14.52;;;9.80;99.90;;;;;;5030266;28;20025;-87
2021/10/31 03:51:48;;;;;;;24.95;13.80;;;9.70;99.90;;;;;;5033578;28;20022;-87
2021/10/31 03:54:13;;;;;;;24.95;12.82;;;9.80;99.90;;;;;;5044853;28;20060;-85
2021/10/31 03:56:39;;;;;;;23.83;13.80;;;9.70;99.90;;;;;;5031237;28;20065;-87
2021/10/31 03:59:05;;;;;;;22.67;14.02;;;9.70;99.90;;;;;;5024880;28;20410;-86
2021/10/31 04:01:35;;;;;;;22.20;13.55;;;9.70;99.90;;;;;;5028415;28;20042;-87
2021/10/31 04:04:01;;;;;;;25.63;13.02;;;9.70;99.90;;;;;;5023496;28;20026;-88
2021/10/31 04:06:27;;;;;;;25.88;14.35;;;9.70;99.90;;;;;;5029464;28;20497;-87
2021/10/31 04:08:52;;;;;;;30.58;15.52;;;9.70;99.90;;;;;;5029166;28;20440;-88
2021/10/31 04:11:22;;;;;;;23.88;14.48;;;9.70;99.90;;;;;;5022684;28;20030;-88
2021/10/31 04:13:59;;;;;;;33.00;14.77;;;9.80;99.90;;;;;;5033867;28;20025;-88
2021/10/31 04:16:28;;;;;;;32.17;16.20;;;9.70;99.90;;;;;;5026985;28;20026;-88
2021/10/31 04:18:54;;;;;;;28.30;14.40;;;9.70;99.90;;;;;;5031537;28;20113;-88
2021/10/31 04:21:21;;;;;;;32.35;15.73;;;9.70;99.90;;;;;;5032351;28;20113;-88
2021/10/31 04:23:46;;;;;;;28.90;14.82;;;9.70;99.90;;;;;;5025088;28;20030;-88
2021/10/31 04:26:12;;;;;;;24.08;14.80;;;9.70;99.90;;;;;;5030665;28;20032;-88
2021/10/31 04:28:37;;;;;;;29.75;15.05;;;9.70;99.90;;;;;;5028156;28;20501;-88
2021/10/31 04:31:03;;;;;;;28.27;15.35;;;9.70;99.90;;;;;;5044270;28;20108;-88
2021/10/31 04:33:28;;;;;;;26.83;14.85;;;9.70;99.90;;;;;;5033289;28;20116;-87
2021/10/31 04:35:54;;;;;;;26.77;15.93;;;9.60;99.90;;;;;;5030673;28;20021;-88
2021/10/31 04:38:26;;;;;;;29.52;15.15;;;9.60;99.90;;;;;;5034619;28;20029;-87
2021/10/31 04:40:51;;;;;;;27.20;15.52;;;9.60;99.90;;;;;;5029389;28;20025;-88
2021/10/31 04:43:17;;;;;;;30.60;15.98;;;9.60;99.90;;;;;;5028031;28;20557;-87
2021/10/31 04:45:44;;;;;;;29.63;15.93;;;9.60;99.90;;;;;;5039628;28;20029;-88
2021/10/31 04:48:11;;;;;;;28.52;15.80;;;9.60;99.90;;;;;;5028125;28;20430;-87
2021/10/31 04:50:38;;;;;;;31.45;15.25;;;9.60;99.90;;;;;;5031089;28;20090;-88
2021/10/31 04:53:05;;;;;;;32.38;18.27;;;9.60;99.90;;;;;;5028010;28;20027;-89
2021/10/31 04:55:31;;;;;;;32.50;16.70;;;9.50;99.90;;;;;;5030950;28;20042;-89
2021/10/31 04:57:57;;;;;;;31.42;17.17;;;9.50;99.90;;;;;;5029715;28;20095;-88
2021/10/31 05:00:30;;;;;;;34.55;16.95;;;9.50;99.90;;;;;;5030136;28;20068;-88
2021/10/31 05:02:56;;;;;;;27.02;16.17;;;9.50;99.90;;;;;;5031805;28;20056;-88
2021/10/31 05:05:22;;;;;;;31.55;17.23;;;9.50;99.90;;;;;;5037842;28;20073;-88
2021/10/31 05:07:49;;;;;;;30.75;16.52;;;9.50;99.90;;;;;;5032887;28;20153;-88
2021/10/31 05:10:34;;;;;;;37.17;17.38;;;9.50;99.90;;;;;;5032880;28;20448;-88
2021/10/31 05:13:00;;;;;;;30.20;15.85;;;9.50;99.90;;;;;;5024526;28;20022;-88
2021/10/31 05:15:26;;;;;;;29.40;16.58;;;9.40;99.90;;;;;;5029385;28;20034;-88
2021/10/31 05:17:53;;;;;;;28.88;16.92;;;9.40;99.90;;;;;;5030455;28;20029;-88
2021/10/31 05:20:19;;;;;;;31.27;17.13;;;9.40;99.90;;;;;;5020393;28;20383;-88
2021/10/31 05:22:44;;;;;;;30.98;16.05;;;9.40;99.90;;;;;;5024189;28;20029;-89
2021/10/31 05:25:11;;;;;;;32.20;17.88;;;9.30;99.90;;;;;;5045228;28;20029;-88
2021/10/31 05:27:37;;;;;;;30.70;16.83;;;9.30;99.90;;;;;;5028152;28;20022;-88
2021/10/31 05:30:05;;;;;;;29.92;17.38;;;9.30;99.90;;;;;;5032565;28;20105;-88
2021/10/31 05:32:33;;;;;;;30.08;16.40;;;9.30;99.90;;;;;;5026859;28;20033;-88
2021/10/31 05:34:59;;;;;;;38.08;17.83;;;9.30;99.90;;;;;;5031240;28;20112;-88
2021/10/31 05:37:34;;;;;;;30.67;17.40;;;9.20;99.90;;;;;;5029888;28;20153;-89
2021/10/31 05:40:00;;;;;;;30.02;16.92;;;9.20;99.90;;;;;;5027289;28;20109;-90
2021/10/31 05:42:26;;;;;;;34.15;18.98;;;9.20;99.90;;;;;;5027534;28;20026;-88
2021/10/31 05:44:51;;;;;;;32.08;18.20;;;9.20;99.90;;;;;;5030262;28;20044;-88
2021/10/31 05:47:17;;;;;;;31.60;17.80;;;9.10;99.90;;;;;;5023243;28;20049;-88
2021/10/31 05:49:43;;;;;;;31.80;17.95;;;9.10;99.90;;;;;;5030128;28;20087;-88
2021/10/31 05:52:08;;;;;;;29.48;18.55;;;9.10;99.90;;;;;;5033359;28;20125;-88
2021/10/31 05:54:34;;;;;;;34.80;18.00;;;9.10;99.90;;;;;;5032831;28;20032;-88
2021/10/31 05:57:00;;;;;;;33.20;18.30;;;9.10;99.90;;;;;;5032829;28;20026;-88
2021/10/31 05:59:25;;;;;;;32.60;18.15;;;9.10;99.90;;;;;;5033417;28;20478;-88
2021/10/31 06:01:51;;;;;;;30.42;17.13;;;9.10;99.90;;;;;;5044747;28;20048;-88
2021/10/31 06:04:16;;;;;;;33.30;18.15;;;9.10;99.90;;;;;;5054574;28;20033;-88
2021/10/31 06:06:42;;;;;;;33.67;19.30;;;9.10;99.90;;;;;;5055255;28;20095;-89
2021/10/31 06:09:18;;;;;;;34.70;19.73;;;9.10;99.90;;;;;;5055180;28;20025;-88
2021/10/31 06:11:43;;;;;;;32.25;18.38;;;9.20;99.90;;;;;;5041305;28;20077;-88
2021/10/31 06:14:11;;;;;;;31.33;17.70;;;9.10;99.90;;;;;;5036987;28;20029;-88
2021/10/31 06:16:37;;;;;;;32.35;18.13;;;9.20;99.90;;;;;;5037094;28;20555;-86
2021/10/31 06:19:02;;;;;;;32.05;17.15;;;9.30;99.90;;;;;;5055300;28;20111;-87
2021/10/31 06:21:28;;;;;;;34.97;19.17;;;9.30;99.90;;;;;;5038136;28;20059;-88
2021/10/31 06:23:53;;;;;;;37.05;19.90;;;9.30;99.90;;;;;;5033550;28;20013;-87
2021/10/31 06:26:19;;;;;;;30.80;18.83;;;9.30;99.90;;;;;;5037909;28;20021;-88
2021/10/31 06:28:44;;;;;;;35.55;20.27;;;9.30;99.90;;;;;;5039544;28;20029;-88
2021/10/31 06:31:10;;;;;;;31.25;18.35;;;9.40;99.90;;;;;;5055712;28;20040;-88
2021/10/31 06:33:35;;;;;;;32.65;19.00;;;9.40;99.90;;;;;;5055639;28;20112;-88
2021/10/31 06:36:01;;;;;;;30.73;17.98;;;9.40;99.90;;;;;;5054455;28;20119;-88
2021/10/31 06:38:26;;;;;;;35.22;19.35;;;9.30;99.90;;;;;;5036788;28;20016;-88
2021/10/31 06:40:52;;;;;;;33.90;20.33;;;9.40;99.90;;;;;;5052947;28;20441;-88
2021/10/31 06:43:17;;;;;;;37.80;21.02;;;9.40;99.90;;;;;;5035578;28;20116;-88
2021/10/31 06:45:44;;;;;;;30.10;18.73;;;9.30;99.90;;;;;;5037641;28;20025;-88
2021/10/31 06:48:11;;;;;;;34.22;20.98;;;9.30;99.90;;;;;;5032044;28;20025;-89
2021/10/31 06:50:40;;;;;;;31.95;19.17;;;9.30;99.90;;;;;;5037364;28;20103;-88
2021/10/31 06:53:06;;;;;;;35.05;20.70;;;9.30;99.90;;;;;;5036868;28;20025;-87
2021/10/31 06:55:33;;;;;;;36.25;19.90;;;9.30;99.90;;;;;;5032923;28;20125;-88
2021/10/31 06:57:59;;;;;;;41.42;20.15;;;9.30;99.90;;;;;;5031762;28;20025;-88
2021/10/31 07:00:26;;;;;;;32.35;19.60;;;9.40;99.90;;;;;;5030475;28;20024;-88
2021/10/31 07:02:52;;;;;;;34.53;20.75;;;9.40;99.90;;;;;;5036618;28;20099;-87
2021/10/31 07:05:17;;;;;;;32.97;19.73;;;9.40;99.90;;;;;;5042029;28;20473;-86
2021/10/31 07:07:55;;;;;;;41.22;20.33;;;9.30;99.90;;;;;;5036860;28;20473;-88
2021/10/31 07:10:21;;;;;;;34.42;20.95;;;9.40;99.90;;;;;;5037609;28;20119;-88
2021/10/31 07:12:47;;;;;;;38.40;20.67;;;9.40;99.90;;;;;;5036864;28;20063;-88
2021/10/31 07:15:12;;;;;;;32.42;20.33;;;9.40;99.90;;;;;;5035147;28;20512;-89
2021/10/31 07:17:39;;;;;;;36.28;20.50;;;9.50;99.90;;;;;;5035661;28;20086;-88
2021/10/31 07:20:07;;;;;;;33.38;19.45;;;9.50;99.90;;;;;;5040577;28;20481;-88
2021/10/31 07:22:33;;;;;;;33.45;19.50;;;9.50;99.90;;;;;;5046159;28;20025;-88
2021/10/31 07:24:59;;;;;;;34.05;20.10;;;9.50;99.90;;;;;;5028669;28;20508;-88
2021/10/31 07:27:25;;;;;;;35.22;21.00;;;9.60;99.90;;;;;;5053302;28;20647;-88
2021/10/31 07:29:50;;;;;;;29.73;19.20;;;9.60;99.90;;;;;;5036247;28;20040;-88
2021/10/31 07:32:17;;;;;;;28.77;19.33;;;9.60;99.90;;;;;;5030928;28;20052;-89
2021/10/31 07:34:44;;;;;;;34.05;20.50;;;9.70;99.90;;;;;;5052146;28;20050;-87
2021/10/31 07:37:09;;;;;;;29.77;18.75;;;9.70;99.90;;;;;;5032592;28;20033;-89
2021/10/31 07:39:35;;;;;;;31.77;20.48;;;9.90;99.90;;;;;;5036445;28;20021;-89
2021/10/31 07:42:01;;;;;;;28.98;18.60;;;9.90;99.90;;;;;;5034707;28;20082;-90
2021/10/31 07:44:27;;;;;;;28.85;18.48;;;10.00;99.90;;;;;;5030845;28;20533;-91
2021/10/31 07:46:52;;;;;;;26.55;17.95;;;10.10;99.90;;;;;;5035258;28;20124;-91
2021/10/31 07:49:18;;;;;;;27.75;18.45;;;10.10;99.90;;;;;;5045418;28;20021;-90
2021/10/31 07:51:44;;;;;;;28.70;18.15;;;10.10;99.90;;;;;;5044002;28;20112;-91
2021/10/31 07:54:10;;;;;;;30.48;17.33;;;10.20;99.90;;;;;;5035443;28;20032;-91
2021/10/31 07:56:36;;;;;;;30.90;19.20;;;10.20;99.90;;;;;;5039100;28;20040;-90
2021/10/31 07:59:03;;;;;;;28.13;16.85;;;10.30;99.90;;;;;;5041887;28;20427;-92
2021/10/31 08:01:28;;;;;;;23.00;16.65;;;10.40;99.90;;;;;;5051790;28;20477;-91
2021/10/31 08:03:54;;;;;;;37.97;17.42;;;10.40;99.90;;;;;;5043564;28;20053;-90
2021/10/31 08:06:24;;;;;;;22.83;16.08;;;10.50;99.90;;;;;;5042018;28;20068;-90
2021/10/31 08:08:50;;;;;;;23.05;15.85;;;10.50;99.90;;;;;;5058401;28;20027;-90
2021/10/31 08:11:16;;;;;;;21.33;16.42;;;10.50;99.90;;;;;;5037887;28;20454;-90
2021/10/31 08:13:42;;;;;;;24.45;15.98;;;10.60;99.90;;;;;;5038336;28;20111;-90
2021/10/31 08:16:08;;;;;;;23.52;16.10;;;10.70;99.90;;;;;;5055032;28;20119;-91
2021/10/31 08:18:33;;;;;;;22.75;17.17;;;10.70;99.90;;;;;;5042043;28;20115;-89
2021/10/31 08:20:59;;;;;;;23.70;16.80;;;10.80;99.90;;;;;;5037642;28;20052;-89
2021/10/31 08:23:26;;;;;;;22.25;15.45;;;10.80;99.90;;;;;;5032507;28;20017;-88
2021/10/31 08:25:51;;;;;;;19.05;14.35;;;10.90;99.90;;;;;;5037538;28;20036;-87
2021/10/31 08:28:19;;;;;;;20.33;15.00;;;10.90;99.90;;;;;;5053196;28;20021;-89
2021/10/31 08:30:48;;;;;;;21.15;13.95;;;11.00;99.90;;;;;;5041240;28;20495;-88
2021/10/31 08:33:23;;;;;;;17.20;13.70;;;11.10;99.90;;;;;;5039514;28;20071;-89
2021/10/31 08:35:50;;;;;;;18.27;14.23;;;11.20;99.90;;;;;;5041227;28;20025;-88
2021/10/31 08:38:16;;;;;;;17.15;12.75;;;11.20;99.90;;;;;;5037493;28;20381;-88
2021/10/31 08:40:43;;;;;;;16.92;14.05;;;11.20;99.90;;;;;;5039878;28;20025;-88
2021/10/31 08:43:10;;;;;;;16.25;12.00;;;11.30;99.90;;;;;;5049132;28;20021;-88
2021/10/31 08:45:40;;;;;;;16.67;13.02;;;11.40;99.90;;;;;;5036549;28;20017;-88
2021/10/31 08:48:05;;;;;;;14.02;11.18;;;11.50;99.90;;;;;;5029093;28;20025;-88
2021/10/31 08:50:31;;;;;;;16.00;12.40;;;11.50;99.90;;;;;;5041923;28;20498;-88
2021/10/31 08:52:56;;;;;;;15.85;12.23;;;11.60;99.90;;;;;;5047321;28;20163;-88
2021/10/31 08:55:22;;;;;;;14.93;11.20;;;11.60;99.90;;;;;;5035993;28;20377;-88
2021/10/31 08:57:47;;;;;;;15.57;11.95;;;11.60;99.90;;;;;;5049445;28;20041;-86
2021/10/31 09:00:13;;;;;;;13.75;11.32;;;11.60;99.90;;;;;;5044686;28;20021;-89
2021/10/31 09:02:40;;;;;;;15.55;11.55;;;11.70;99.90;;;;;;5033255;28;20120;-88
2021/10/31 09:05:06;;;;;;;13.10;10.15;;;11.70;99.90;;;;;;5029477;28;20033;-89
2021/10/31 09:07:32;;;;;;;15.65;11.20;;;11.70;99.90;;;;;;5032335;28;20084;-88
2021/10/31 09:09:58;;;;;;;13.38;11.40;;;11.80;99.90;;;;;;5032613;28;20089;-88
2021/10/31 09:12:24;;;;;;;16.25;11.20;;;11.80;99.90;;;;;;5033542;28;20505;-88
2021/10/31 09:14:51;;;;;;;13.57;10.82;;;11.80;99.90;;;;;;5042948;28;20056;-88
2021/10/31 09:17:16;;;;;;;14.82;12.10;;;12.00;99.90;;;;;;5033242;28;20026;-91
2021/10/31 09:19:42;;;;;;;15.38;11.70;;;12.00;99.90;;;;;;5033278;28;20033;-86
2021/10/31 09:22:09;;;;;;;13.98;10.98;;;12.20;99.90;;;;;;5035921;28;20153;-88
2021/10/31 09:24:34;;;;;;;15.00;12.05;;;12.20;99.90;;;;;;5039336;28;20025;-89
2021/10/31 09:27:00;;;;;;;12.90;10.73;;;12.40;99.90;;;;;;5030858;28;20032;-89
2021/10/31 09:29:29;;;;;;;12.73;10.88;;;12.40;99.90;;;;;;5028444;28;20029;-88
2021/10/31 09:31:54;;;;;;;13.15;10.82;;;12.40;99.90;;;;;;5037659;28;20152;-89
2021/10/31 09:34:20;;;;;;;11.15;9.52;;;12.50;99.90;;;;;;5032438;28;20108;-88
2021/10/31 09:36:46;;;;;;;13.48;10.55;;;12.50;99.90;;;;;;5037914;28;20697;-89
2021/10/31 09:39:12;;;;;;;15.27;10.38;;;12.60;99.90;;;;;;5035075;28;20026;-88
2021/10/31 09:41:38;;;;;;;10.82;8.57;;;12.60;99.90;;;;;;5035535;28;20417;-89
2021/10/31 09:44:16;;;;;;;9.60;8.30;;;12.70;99.90;;;;;;5034111;28;20026;-88
2021/10/31 09:46:44;;;;;;;9.73;7.60;;;12.80;99.90;;;;;;5037298;28;20022;-88
2021/10/31 09:49:10;;;;;;;10.93;8.23;;;12.90;99.90;;;;;;5039412;28;20053;-88
2021/10/31 09:51:36;;;;;;;7.90;6.57;;;12.90;99.90;;;;;;5035290;28;20022;-88
2021/10/31 09:54:02;;;;;;;9.05;7.30;;;13.00;99.90;;;;;;5037912;28;20033;-88
2021/10/31 09:56:28;;;;;;;8.27;7.25;;;13.10;99.90;;;;;;5037702;28;20037;-88
2021/10/31 09:58:58;;;;;;;9.35;7.57;;;13.10;99.90;;;;;;5034598;28;20021;-89
2021/10/31 10:04:50;;;;;;;8.65;6.00;;;13.30;99.90;;;;;;5036731;28;20049;-88
2021/10/31 10:07:17;;;;;;;5.13;4.20;;;13.50;99.90;;;;;;5035216;28;20026;-89
2021/10/31 10:09:51;;;;;;;8.00;4.20;;;13.60;99.90;;;;;;5037302;28;20021;-85
2021/10/31 10:12:19;;;;;;;8.00;3.75;;;13.70;99.90;;;;;;5042081;28;20045;-89
2021/10/31 10:14:55;;;;;;;4.30;3.70;;;13.70;99.90;;;;;;5037011;28;20025;-89
2021/10/31 10:17:21;;;;;;;5.53;3.72;;;13.70;99.90;;;;;;5017850;28;20034;-86
2021/10/31 10:20:10;;;;;;;5.55;3.65;;;13.80;99.90;;;;;;5032157;28;20030;-89
2021/10/31 10:22:37;;;;;;;5.35;3.08;;;13.90;99.90;;;;;;5038131;28;20033;-82
2021/10/31 10:25:03;;;;;;;5.18;2.80;;;14.00;99.90;;;;;;5047873;28;20032;-83
2021/10/31 10:27:34;;;;;;;5.88;2.83;;;14.00;99.90;;;;;;5031749;28;20493;-92
2021/10/31 10:30:11;;;;;;;4.72;2.05;;;14.00;99.90;;;;;;5034432;28;20054;-94
2021/10/31 10:32:48;;;;;;;4.30;2.40;;;14.10;99.90;;;;;;5034987;28;20053;-93
2021/10/31 10:35:26;;;;;;;4.75;2.95;;;14.20;99.90;;;;;;5036162;28;20405;-88
2021/10/31 10:37:52;;;;;;;3.88;2.00;;;14.10;99.90;;;;;;5045416;28;20026;-89
2021/10/31 10:40:24;;;;;;;5.55;2.28;;;14.20;99.90;;;;;;5036589;28;20128;-89
2021/10/31 10:42:52;;;;;;;3.75;1.90;;;14.20;99.90;;;;;;5031914;28;20033;-87
2021/10/31 10:45:30;;;;;;;3.17;1.52;;;14.40;99.90;;;;;;5035439;28;20112;-87
2021/10/31 10:47:59;;;;;;;2.97;1.48;;;14.60;99.90;;;;;;5035248;28;20029;-86
2021/10/31 10:50:26;;;;;;;2.63;1.30;;;14.70;99.90;;;;;;5042887;28;20033;-87
2021/10/31 10:52:53;;;;;;;2.35;1.30;;;14.80;99.90;;;;;;5033943;28;20021;-86
2021/10/31 10:55:22;;;;;;;4.60;1.92;;;14.90;99.90;;;;;;5032357;28;20049;-87
2021/10/31 10:57:51;;;;;;;4.22;1.33;;;15.00;99.90;;;;;;5035948;28;20489;-86
2021/10/31 11:00:21;;;;;;;2.83;1.40;;;15.10;99.90;;;;;;5033535;28;20036;-87
2021/10/31 11:03:07;;;;;;;2.70;1.17;;;15.20;99.90;;;;;;5037168;28;20037;-86
2021/10/31 11:05:45;;;;;;;1.60;0.98;;;15.30;99.90;;;;;;5033431;28;20030;-86
2021/10/31 11:08:17;;;;;;;4.85;1.08;;;15.20;99.90;;;;;;5040161;28;20032;-87
2021/10/31 11:10:45;;;;;;;2.95;0.90;;;15.20;99.90;;;;;;5047437;28;20036;-86
2021/10/31 11:13:11;;;;;;;2.72;0.80;;;15.30;99.90;;;;;;5033433;28;20440;-86
2021/10/31 11:15:37;;;;;;;3.28;0.80;;;15.30;99.90;;;;;;5030352;28;20033;-86
2021/10/31 11:18:05;;;;;;;2.35;0.80;;;15.50;99.90;;;;;;5022774;28;20022;-85
2021/10/31 11:20:34;;;;;;;2.35;0.75;;;15.60;99.90;;;;;;5038807;28;20044;-86
2021/10/31 11:23:07;;;;;;;2.92;1.00;;;15.70;99.90;;;;;;5034784;28;20048;-87
2021/10/31 11:25:36;;;;;;;2.03;0.85;;;15.60;99.90;;;;;;5034183;28;20033;-85
2021/10/31 11:28:05;;;;;;;2.55;0.90;;;15.50;99.90;;;;;;5050026;28;20045;-85
2021/10/31 11:30:33;;;;;;;2.15;1.00;;;15.40;99.90;;;;;;5033603;28;20033;-85
2021/10/31 11:33:00;;;;;;;2.15;0.90;;;15.30;99.90;;;;;;5029638;28;20501;-86
2021/10/31 11:35:28;;;;;;;2.97;1.10;;;15.20;99.90;;;;;;5031493;28;20121;-86
2021/10/31 11:38:22;;;;;;;3.17;0.80;;;15.20;99.90;;;;;;5036137;28;20026;-85
2021/10/31 11:41:02;;;;;;;3.38;1.08;;;15.20;99.90;;;;;;5046769;28;20053;-87
2021/10/31 11:43:30;;;;;;;4.30;0.90;;;15.20;99.90;;;;;;5034057;28;20033;-86
2021/10/31 11:45:57;;;;;;;2.38;1.15;;;15.20;99.90;;;;;;5037696;28;20025;-87
2021/10/31 11:48:32;;;;;;;2.50;1.00;;;15.20;99.90;;;;;;5042287;28;20167;-86
2021/10/31 11:51:04;;;;;;;1.80;1.15;;;15.10;99.90;;;;;;5022480;28;20014;-86
2021/10/31 11:53:30;;;;;;;;;;;15.10;99.90;;;;;;5063179;28;20052;-86
2021/10/31 11:56:01;;;;;;;2.25;1.00;;;15.10;99.90;;;;;;5039221;28;19917;-86
2021/10/31 11:58:41;;;;;;;1.95;1.10;;;15.00;99.90;;;;;;5032522;28;20017;-86
2021/10/31 12:01:20;;;;;;;2.40;1.38;;;15.00;99.90;;;;;;5036103;28;20040;-86
2021/10/31 12:03:54;;;;;;;2.97;1.30;;;15.00;99.90;;;;;;5053095;28;20029;-86
2021/10/31 12:06:23;;;;;;;2.97;1.15;;;15.00;99.90;;;;;;5035527;28;20414;-86
2021/10/31 12:08:57;;;;;;;1.95;1.23;;;15.00;99.90;;;;;;5033908;28;20025;-86
2021/10/31 12:11:32;;;;;;;2.90;1.10;;;15.10;99.90;;;;;;5032687;28;20457;-86
2021/10/31 12:14:08;;;;;;;2.63;1.10;;;15.10;99.90;;;;;;5040270;28;20071;-86
2021/10/31 12:16:53;;;;;;;3.97;1.40;;;15.10;99.90;;;;;;5028319;28;20033;-86
2021/10/31 12:19:35;;;;;;;2.83;1.60;;;15.10;99.90;;;;;;5041679;28;20067;-86
2021/10/31 12:22:19;;;;;;;5.45;1.40;;;15.20;99.90;;;;;;5031427;28;20188;-87
2021/10/31 12:24:48;;;;;;;3.63;1.60;;;15.20;99.90;;;;;;5032051;28;20039;-86
2021/10/31 12:27:26;;;;;;;2.50;1.40;;;15.20;99.90;;;;;;5031658;28;20030;-86
2021/10/31 12:30:29;;;;;;;3.83;1.70;;;15.20;99.90;;;;;;5021936;28;20113;-86
2021/10/31 12:33:06;;;;;;;2.20;1.20;;;15.30;99.90;;;;;;5027529;28;20116;-86
2021/10/31 12:35:36;;;;;;;6.30;1.38;;;15.30;99.90;;;;;;5032685;28;20044;-86
2021/10/31 12:38:16;;;;;;;2.67;1.08;;;15.30;99.90;;;;;;5030656;28;20108;-86
2021/10/31 12:41:11;;;;;;;4.80;0.90;;;15.40;99.90;;;;;;5034644;28;20032;-89
2021/10/31 12:43:46;;;;;;;4.03;1.55;;;15.50;99.90;;;;;;5013235;28;20034;-87
2021/10/31 12:46:27;;;;;;;3.97;1.45;;;15.50;99.90;;;;;;5029872;28;20049;-88
2021/10/31 12:48:55;;;;;;;2.35;1.20;;;15.60;99.90;;;;;;5051324;28;20017;-89
2021/10/31 12:51:38;;;;;;;1.63;0.90;;;15.70;99.90;;;;;;5033414;28;20025;-88
2021/10/31 12:54:04;;;;;;;3.90;1.95;;;15.80;99.90;;;;;;5054354;28;20032;-93